createdAt,value
2023-05-12T00:00:03.119Z,27.94
2023-05-12T00:02:04.793Z,27.95
2023-05-12T00:04:07.036Z,27.96
2023-05-12T00:06:08.776Z,27.98
2023-05-12T00:08:10.336Z,28.00
2023-05-12T00:10:12.267Z,28.01
2023-05-12T00:12:13.865Z,28.02
2023-05-12T00:14:15.853Z,28.01
2023-05-12T00:16:18.775Z,27.99
2023-05-12T00:18:20.512Z,27.87
2023-05-12T00:20:22.606Z,27.98
2023-05-12T00:22:24.303Z,27.96
2023-05-12T00:24:25.974Z,27.98
2023-05-12T00:26:27.638Z,27.99
2023-05-12T00:28:29.197Z,28.01
2023-05-12T00:30:30.775Z,28.04
2023-05-12T00:32:32.287Z,28.04
2023-05-12T00:34:33.841Z,28.05
2023-05-12T00:36:35.277Z,28.05
2023-05-12T00:38:37.389Z,28.04
2023-05-12T00:40:38.941Z,28.05
2023-05-12T00:42:40.458Z,28.04
2023-05-12T00:44:41.946Z,28.03
2023-05-12T00:46:43.376Z,28.04
2023-05-12T00:48:45.405Z,28.05
2023-05-12T00:50:46.953Z,28.05
2023-05-12T00:52:48.906Z,28.07
2023-05-12T00:54:50.630Z,28.07
2023-05-12T00:56:52.084Z,28.11
2023-05-12T00:58:53.687Z,28.10
2023-05-12T01:00:55.509Z,28.10
2023-05-12T01:03:00.341Z,28.10
2023-05-12T01:05:02.554Z,28.08
2023-05-12T01:07:07.554Z,28.07
2023-05-12T01:09:09.409Z,28.06
2023-05-12T01:11:10.830Z,28.07
2023-05-12T01:13:12.617Z,28.07
2023-05-12T01:15:14.290Z,28.07
2023-05-12T01:17:19.027Z,28.10
2023-05-12T01:19:29.677Z,28.10
2023-05-12T01:21:31.946Z,28.13
2023-05-12T01:23:39.774Z,28.13
2023-05-12T01:25:41.550Z,28.03
2023-05-12T01:27:43.109Z,28.12
2023-05-12T01:29:46.466Z,28.11
2023-05-12T01:31:49.118Z,28.10
2023-05-12T01:33:50.684Z,28.10
2023-05-12T01:35:52.158Z,28.11
2023-05-12T01:37:53.574Z,28.11
2023-05-12T01:39:55.000Z,28.13
2023-05-12T01:41:56.503Z,28.14
2023-05-12T01:43:57.936Z,28.15
2023-05-12T01:45:59.456Z,28.16
2023-05-12T01:48:01.020Z,28.17
2023-05-12T01:50:02.531Z,28.15
2023-05-12T01:52:04.140Z,28.14
2023-05-12T01:54:05.679Z,28.14
2023-05-12T01:56:07.271Z,28.11
2023-05-12T01:58:08.929Z,28.11
2023-05-12T02:00:10.984Z,28.13
2023-05-12T02:02:12.652Z,28.15
2023-05-12T02:04:14.266Z,28.17
2023-05-12T02:06:15.910Z,28.19
2023-05-12T02:08:17.454Z,28.19
2023-05-12T02:10:19.072Z,28.20
2023-05-12T02:12:20.786Z,28.19
2023-05-12T02:14:22.292Z,28.19
2023-05-12T02:16:24.136Z,28.18
2023-05-12T02:18:25.647Z,28.17
2023-05-12T02:20:29.282Z,28.16
2023-05-12T02:22:30.850Z,28.16
2023-05-12T02:24:32.243Z,28.15
2023-05-12T02:26:33.693Z,28.16
2023-05-12T02:28:35.147Z,28.19
2023-05-12T02:30:37.000Z,28.22
2023-05-12T02:32:38.484Z,28.23
2023-05-12T02:34:40.078Z,28.24
2023-05-12T02:36:41.673Z,28.22
2023-05-12T02:38:43.120Z,28.22
2023-05-12T02:40:46.078Z,28.22
2023-05-12T02:42:47.613Z,28.21
2023-05-12T02:44:49.130Z,28.19
2023-05-12T02:46:50.701Z,28.09
2023-05-12T02:48:52.112Z,28.19
2023-05-12T02:50:53.550Z,28.22
2023-05-12T02:52:54.989Z,28.24
2023-05-12T02:54:56.971Z,28.24
2023-05-12T02:56:59.810Z,28.24
2023-05-12T02:59:01.470Z,28.26
2023-05-12T03:01:09.823Z,28.25
2023-05-12T03:03:13.015Z,28.25
2023-05-12T03:05:14.574Z,28.24
2023-05-12T03:07:16.182Z,28.23
2023-05-12T03:09:17.596Z,28.22
2023-05-12T03:11:19.067Z,28.20
2023-05-12T03:13:20.547Z,28.22
2023-05-12T03:15:22.232Z,28.23
2023-05-12T03:17:23.960Z,28.25
2023-05-12T03:19:25.605Z,28.26
2023-05-12T03:21:28.536Z,28.28
2023-05-12T03:23:30.770Z,28.27
2023-05-12T03:25:32.354Z,28.27
2023-05-12T03:27:33.919Z,28.27
2023-05-12T03:29:35.385Z,28.25
2023-05-12T03:31:36.979Z,28.25
2023-05-12T03:33:38.371Z,28.25
2023-05-12T03:35:39.950Z,28.24
2023-05-12T03:37:41.472Z,28.24
2023-05-12T03:39:43.173Z,28.26
2023-05-12T03:41:44.671Z,28.27
2023-05-12T03:43:46.562Z,28.30
2023-05-12T03:45:48.041Z,28.31
2023-05-12T03:47:49.719Z,28.32
2023-05-12T03:49:51.328Z,28.31
2023-05-12T03:51:52.914Z,28.29
2023-05-12T03:53:54.305Z,28.29
2023-05-12T03:55:55.726Z,28.29
2023-05-12T03:57:57.215Z,28.29
2023-05-12T03:59:58.803Z,28.28
2023-05-12T04:02:00.536Z,28.29
2023-05-12T04:04:02.079Z,28.28
2023-05-12T04:06:04.233Z,28.28
2023-05-12T04:08:05.816Z,28.32
2023-05-12T04:10:07.885Z,28.31
2023-05-12T04:12:09.985Z,28.32
2023-05-12T04:14:11.457Z,28.32
2023-05-12T04:16:13.022Z,28.29
2023-05-12T04:18:14.679Z,28.28
2023-05-12T04:20:16.221Z,28.29
2023-05-12T04:22:17.758Z,28.28
2023-05-12T04:24:19.391Z,28.27
2023-05-12T04:26:22.054Z,28.27
2023-05-12T04:28:23.592Z,28.28
2023-05-12T04:30:25.278Z,28.32
2023-05-12T04:32:26.829Z,28.33
2023-05-12T04:34:28.414Z,28.34
2023-05-12T04:36:29.915Z,28.33
2023-05-12T04:38:31.520Z,28.33
2023-05-12T04:40:34.892Z,28.31
2023-05-12T04:42:36.663Z,28.31
2023-05-12T04:44:38.167Z,28.31
2023-05-12T04:46:39.617Z,28.31
2023-05-12T04:48:43.174Z,28.31
2023-05-12T04:50:44.647Z,28.30
2023-05-12T04:52:46.138Z,28.32
2023-05-12T04:54:47.617Z,28.33
2023-05-12T04:56:49.182Z,28.33
2023-05-12T04:58:50.867Z,28.34
2023-05-12T05:00:53.000Z,28.33
2023-05-12T05:02:54.586Z,28.34
2023-05-12T05:04:56.236Z,28.32
2023-05-12T05:06:57.693Z,28.31
2023-05-12T05:08:59.149Z,28.29
2023-05-12T05:11:00.816Z,28.31
2023-05-12T05:13:02.228Z,28.30
2023-05-12T05:15:04.085Z,28.31
2023-05-12T05:17:07.829Z,28.32
2023-05-12T05:19:20.017Z,28.35
2023-05-12T05:21:26.923Z,28.35
2023-05-12T05:23:28.376Z,28.35
2023-05-12T05:25:29.839Z,28.35
2023-05-12T05:27:31.328Z,28.35
2023-05-12T05:29:32.960Z,28.34
2023-05-12T05:31:34.498Z,28.34
2023-05-12T05:33:36.109Z,28.32
2023-05-12T05:35:37.700Z,28.32
2023-05-12T05:37:39.118Z,28.32
2023-05-12T05:39:40.494Z,28.31
2023-05-12T05:41:42.074Z,28.32
2023-05-12T05:43:43.751Z,28.35
2023-05-12T05:45:45.339Z,28.36
2023-05-12T05:47:49.461Z,28.36
2023-05-12T05:49:50.943Z,28.36
2023-05-12T05:51:52.509Z,28.36
2023-05-12T05:53:53.951Z,28.35
2023-05-12T05:55:55.543Z,28.34
2023-05-12T05:57:57.000Z,28.33
2023-05-12T05:59:58.729Z,28.32
2023-05-12T06:02:00.389Z,28.32
2023-05-12T06:04:02.145Z,28.32
2023-05-12T06:06:04.397Z,28.34
2023-05-12T06:08:08.878Z,28.35
2023-05-12T06:10:10.471Z,28.36
2023-05-12T06:12:11.964Z,28.38
2023-05-12T06:14:13.453Z,28.37
2023-05-12T06:16:14.982Z,28.38
2023-05-12T06:18:16.568Z,28.36
2023-05-12T06:20:18.340Z,28.35
2023-05-12T06:22:19.798Z,28.33
2023-05-12T06:24:21.622Z,28.33
2023-05-12T06:26:23.174Z,28.33
2023-05-12T06:28:24.631Z,28.35
2023-05-12T06:30:26.897Z,28.36
2023-05-12T06:32:28.413Z,28.36
2023-05-12T06:34:29.882Z,28.38
2023-05-12T06:36:31.377Z,28.38
2023-05-12T06:38:32.907Z,28.40
2023-05-12T06:40:34.302Z,28.37
2023-05-12T06:42:35.838Z,28.37
2023-05-12T06:44:38.505Z,28.36
2023-05-12T06:46:44.261Z,28.35
2023-05-12T06:48:46.181Z,28.34
2023-05-12T06:50:47.644Z,28.36
2023-05-12T06:52:49.108Z,28.37
2023-05-12T06:54:50.825Z,28.39
2023-05-12T06:56:52.365Z,28.41
2023-05-12T06:58:54.379Z,28.42
2023-05-12T07:00:55.952Z,28.43
2023-05-12T07:02:57.448Z,28.42
2023-05-12T07:04:58.986Z,28.41
2023-05-12T07:07:00.767Z,28.41
2023-05-12T07:09:02.688Z,28.40
2023-05-12T07:11:04.145Z,28.38
2023-05-12T07:13:05.763Z,28.37
2023-05-12T07:15:08.353Z,28.39
2023-05-12T07:17:09.874Z,28.38
2023-05-12T07:19:11.524Z,28.35
2023-05-12T07:21:13.290Z,28.33
2023-05-12T07:23:14.741Z,28.32
2023-05-12T07:25:16.432Z,28.30
2023-05-12T07:27:17.850Z,28.31
2023-05-12T07:29:19.318Z,28.29
2023-05-12T07:31:22.975Z,28.25
2023-05-12T07:33:24.783Z,28.24
2023-05-12T07:35:26.226Z,28.19
2023-05-12T07:37:27.673Z,28.15
2023-05-12T07:39:31.101Z,28.13
2023-05-12T07:41:34.393Z,28.10
2023-05-12T07:43:36.342Z,28.07
2023-05-12T07:45:37.870Z,28.04
2023-05-12T07:47:39.514Z,28.01
2023-05-12T07:49:41.046Z,27.98
2023-05-12T07:51:42.542Z,27.94
2023-05-12T07:53:43.939Z,27.90
2023-05-12T07:55:45.416Z,27.86
2023-05-12T07:57:47.136Z,27.83
2023-05-12T07:59:49.246Z,27.78
2023-05-12T08:01:50.832Z,27.76
2023-05-12T08:03:52.348Z,27.71
2023-05-12T08:05:54.069Z,27.69
2023-05-12T08:07:55.617Z,27.62
2023-05-12T08:09:57.063Z,27.62
2023-05-12T08:11:58.484Z,27.50
2023-05-12T08:14:00.447Z,27.58
2023-05-12T08:16:02.006Z,27.57
2023-05-12T08:18:03.620Z,27.52
2023-05-12T08:20:05.451Z,27.49
2023-05-12T08:22:07.030Z,27.46
2023-05-12T08:24:08.752Z,27.43
2023-05-12T08:26:10.381Z,27.38
2023-05-12T08:28:12.909Z,27.36
2023-05-12T08:30:14.748Z,27.31
2023-05-12T08:32:16.697Z,27.25
2023-05-12T08:34:18.247Z,27.20
2023-05-12T08:36:19.962Z,27.16
2023-05-12T08:38:22.005Z,27.13
2023-05-12T08:40:24.372Z,27.10
2023-05-12T08:42:34.615Z,27.05
2023-05-12T08:44:39.231Z,26.99
2023-05-12T08:46:40.940Z,26.95
2023-05-12T08:48:45.153Z,26.94
2023-05-12T08:50:49.936Z,26.87
2023-05-12T08:52:51.961Z,26.82
2023-05-12T08:54:56.454Z,26.79
2023-05-12T08:59:03.401Z,26.72
2023-05-12T09:01:06.178Z,26.73
2023-05-12T09:03:07.974Z,26.70
2023-05-12T09:05:10.296Z,26.68
2023-05-12T09:07:12.172Z,26.68
2023-05-12T09:09:15.515Z,26.65
2023-05-12T09:11:17.899Z,26.63
2023-05-12T09:13:19.589Z,26.60
2023-05-12T09:15:26.013Z,26.58
2023-05-12T09:17:27.615Z,26.58
2023-05-12T09:19:29.396Z,26.57
2023-05-12T09:21:30.964Z,26.54
2023-05-12T09:23:32.432Z,26.53
2023-05-12T09:25:33.920Z,26.51
2023-05-12T09:27:35.373Z,26.49
2023-05-12T09:31:53.421Z,26.44
2023-05-12T09:33:55.499Z,26.43
2023-05-12T09:35:59.978Z,26.41
2023-05-12T09:38:05.636Z,26.39
2023-05-12T09:40:08.410Z,26.34
2023-05-12T09:42:13.024Z,26.32
2023-05-12T09:44:16.455Z,26.30
2023-05-12T09:46:17.993Z,26.31
2023-05-12T09:48:19.485Z,26.32
2023-05-12T09:50:22.718Z,26.32
2023-05-12T09:52:24.288Z,26.30
2023-05-12T09:54:29.561Z,26.32
2023-05-12T09:56:35.242Z,26.31
2023-05-12T09:58:36.968Z,26.32
2023-05-12T10:02:49.418Z,26.31
2023-05-12T10:04:53.242Z,26.31
2023-05-12T10:06:55.256Z,26.29
2023-05-12T10:09:06.133Z,26.29
2023-05-12T10:11:08.777Z,26.27
2023-05-12T10:13:14.173Z,26.26
2023-05-12T10:15:17.464Z,26.24
2023-05-12T10:17:23.172Z,26.23
2023-05-12T10:19:25.831Z,26.19
2023-05-12T10:21:27.544Z,26.16
2023-05-12T10:23:29.122Z,26.14
2023-05-12T10:25:30.803Z,26.13
2023-05-12T10:27:33.070Z,26.12
2023-05-12T10:29:35.160Z,26.11
2023-05-12T10:31:37.336Z,26.12
2023-05-12T10:33:38.875Z,26.12
2023-05-12T10:35:42.739Z,26.09
2023-05-12T10:37:46.369Z,26.10
2023-05-12T10:39:52.218Z,26.07
2023-05-12T10:42:01.019Z,26.04
2023-05-12T10:44:02.669Z,26.05
2023-05-12T10:46:07.512Z,26.04
2023-05-12T10:48:09.552Z,26.02
2023-05-12T10:50:14.110Z,26.02
2023-05-12T10:52:19.781Z,26.01
2023-05-12T10:54:24.048Z,26.02
2023-05-12T10:56:27.308Z,25.98
2023-05-12T10:58:29.214Z,25.99
2023-05-12T11:00:31.379Z,25.98
2023-05-12T11:02:35.098Z,25.93
2023-05-12T11:04:50.411Z,25.96
2023-05-12T11:07:01.075Z,25.93
2023-05-12T11:09:05.139Z,25.89
2023-05-12T11:11:08.923Z,25.86
2023-05-12T11:13:11.015Z,25.83
2023-05-12T11:15:13.233Z,25.83
2023-05-12T11:17:15.530Z,25.83
2023-05-12T11:19:18.336Z,25.83
2023-05-12T11:21:19.833Z,25.83
2023-05-12T11:23:29.170Z,25.83
2023-05-12T11:25:30.782Z,25.82
2023-05-12T11:27:32.502Z,25.86
2023-05-12T11:29:35.059Z,25.88
2023-05-12T11:31:36.681Z,25.90
2023-05-12T11:33:38.098Z,25.93
2023-05-12T11:35:39.486Z,25.93
2023-05-12T11:37:42.076Z,25.89
2023-05-12T11:39:43.591Z,25.87
2023-05-12T11:41:45.131Z,25.85
2023-05-12T11:43:46.639Z,25.79
2023-05-12T11:45:48.797Z,25.75
2023-05-12T11:47:50.806Z,25.76
2023-05-12T11:49:54.796Z,25.72
2023-05-12T11:51:57.397Z,25.69
2023-05-12T11:53:58.818Z,25.70
2023-05-12T11:56:00.378Z,25.69
2023-05-12T11:58:02.951Z,25.63
2023-05-12T12:00:07.021Z,25.59
2023-05-12T12:02:19.181Z,25.53
2023-05-12T12:04:31.037Z,25.44
2023-05-12T12:06:42.759Z,25.40
2023-05-12T12:08:54.041Z,25.35
2023-05-12T12:10:55.629Z,25.31
2023-05-12T12:12:57.195Z,25.25
2023-05-12T12:15:00.277Z,25.21
2023-05-12T12:17:02.442Z,25.20
2023-05-12T12:19:04.084Z,25.18
2023-05-12T12:21:05.552Z,25.19
2023-05-12T12:23:07.021Z,25.23
2023-05-12T12:25:08.744Z,25.19
2023-05-12T12:27:10.326Z,25.13
2023-05-12T12:29:11.744Z,25.06
2023-05-12T12:31:14.584Z,24.99
2023-05-12T12:33:18.722Z,24.98
2023-05-12T12:35:22.389Z,24.94
2023-05-12T12:37:24.374Z,24.93
2023-05-12T12:39:25.904Z,24.89
2023-05-12T12:41:27.496Z,24.85
2023-05-12T12:43:29.382Z,24.84
2023-05-12T12:45:30.903Z,24.81
2023-05-12T12:47:32.602Z,24.76
2023-05-12T12:49:34.198Z,24.72
2023-05-12T12:51:45.157Z,24.70
2023-05-12T12:53:47.956Z,24.69
2023-05-12T12:55:49.566Z,24.71
2023-05-12T12:57:51.016Z,24.72
2023-05-12T12:59:52.553Z,24.73
2023-05-12T13:01:54.537Z,24.72
2023-05-12T13:03:56.115Z,24.70
2023-05-12T13:05:57.591Z,24.69
2023-05-12T13:07:59.097Z,24.70
2023-05-12T13:10:00.568Z,24.72
2023-05-12T13:12:02.379Z,24.77
2023-05-12T13:14:04.973Z,24.82
2023-05-12T13:16:09.187Z,24.84
2023-05-12T13:18:10.687Z,24.85
2023-05-12T13:20:14.099Z,24.86
2023-05-12T13:22:15.681Z,24.87
2023-05-12T13:24:17.212Z,24.85
2023-05-12T13:26:18.724Z,24.85
2023-05-12T13:28:20.220Z,24.85
2023-05-12T13:30:24.964Z,24.86
2023-05-12T13:32:26.516Z,24.85
2023-05-12T13:34:28.053Z,24.83
2023-05-12T13:36:29.785Z,24.84
2023-05-12T13:38:32.218Z,24.85
2023-05-12T13:40:34.018Z,24.84
2023-05-12T13:42:35.710Z,24.84
2023-05-12T13:44:37.809Z,24.84
2023-05-12T13:46:39.301Z,24.85
2023-05-12T13:48:40.819Z,24.88
2023-05-12T13:50:42.417Z,24.89
2023-05-12T13:52:44.169Z,24.88
2023-05-12T13:54:45.644Z,24.89
2023-05-12T13:56:47.226Z,24.87
2023-05-12T13:58:48.925Z,24.86
2023-05-12T14:00:50.399Z,24.88
2023-05-12T14:02:52.304Z,24.91
2023-05-12T14:04:53.786Z,24.93
2023-05-12T14:06:55.479Z,24.95
2023-05-12T14:08:57.016Z,24.95
2023-05-12T14:10:58.811Z,24.95
2023-05-12T14:13:00.530Z,24.95
2023-05-12T14:15:15.934Z,24.96
2023-05-12T14:17:23.092Z,24.96
2023-05-12T14:19:24.626Z,24.95
2023-05-12T14:21:26.504Z,24.94
2023-05-12T14:23:28.277Z,24.94
2023-05-12T14:25:30.887Z,24.92
2023-05-12T14:27:32.422Z,24.90
2023-05-12T14:29:33.901Z,24.88
2023-05-12T14:31:35.542Z,24.82
2023-05-12T14:33:37.372Z,24.79
2023-05-12T14:35:38.816Z,24.75
2023-05-12T14:37:40.489Z,24.75
2023-05-12T14:39:41.896Z,24.73
2023-05-12T14:41:43.364Z,24.74
2023-05-12T14:43:44.881Z,24.75
2023-05-12T14:45:54.676Z,24.76
2023-05-12T14:47:56.524Z,24.75
2023-05-12T14:49:58.010Z,24.71
2023-05-12T14:51:59.447Z,24.72
2023-05-12T14:54:01.048Z,24.76
2023-05-12T14:56:02.594Z,24.75
2023-05-12T14:58:04.071Z,24.79
2023-05-12T15:00:07.002Z,24.81
2023-05-12T15:02:08.725Z,24.81
2023-05-12T15:04:10.346Z,24.80
2023-05-12T15:06:12.059Z,24.77
2023-05-12T15:08:13.545Z,24.79
2023-05-12T15:10:15.060Z,24.80
2023-05-12T15:12:17.669Z,24.80
2023-05-12T15:14:19.746Z,24.81
2023-05-12T15:16:21.241Z,24.83
2023-05-12T15:18:22.809Z,24.84
2023-05-12T15:20:24.297Z,24.85
2023-05-12T15:22:25.879Z,24.84
2023-05-12T15:24:27.433Z,24.78
2023-05-12T15:26:33.770Z,24.80
2023-05-12T15:28:36.759Z,24.83
2023-05-12T15:30:38.314Z,24.84
2023-05-12T15:32:41.150Z,24.84
2023-05-12T15:34:42.690Z,24.84
2023-05-12T15:36:45.597Z,24.84
2023-05-12T15:38:47.231Z,24.84
2023-05-12T15:40:49.080Z,24.86
2023-05-12T15:42:50.509Z,24.87
2023-05-12T15:44:52.628Z,24.91
2023-05-12T15:46:54.392Z,24.92
2023-05-12T15:48:55.860Z,24.92
2023-05-12T15:50:57.404Z,24.90
2023-05-12T15:52:59.082Z,24.90
2023-05-12T15:55:01.008Z,24.90
2023-05-12T15:57:02.582Z,24.89
2023-05-12T15:59:05.232Z,24.88
2023-05-12T16:01:06.789Z,24.88
2023-05-12T16:03:09.090Z,24.88
2023-05-12T16:05:10.708Z,24.87
2023-05-12T16:07:12.176Z,24.86
2023-05-12T16:09:13.743Z,24.88
2023-05-12T16:11:15.341Z,24.89
2023-05-12T16:13:16.798Z,24.89
2023-05-12T16:15:19.026Z,24.91
2023-05-12T16:17:22.148Z,25.00
2023-05-12T16:19:24.417Z,25.06
2023-05-12T16:21:26.029Z,25.12
2023-05-12T16:23:27.747Z,25.17
2023-05-12T16:25:30.351Z,25.25
2023-05-12T16:27:33.607Z,25.29
2023-05-12T16:29:35.094Z,25.36
2023-05-12T16:31:36.651Z,25.39
2023-05-12T16:33:38.231Z,25.44
2023-05-12T16:35:39.737Z,25.49
2023-05-12T16:37:41.483Z,25.54
2023-05-12T16:39:43.049Z,25.58
2023-05-12T16:41:44.942Z,25.65
2023-05-12T16:43:46.493Z,25.75
2023-05-12T16:45:56.787Z,25.85
2023-05-12T16:47:58.422Z,25.88
2023-05-12T16:49:59.931Z,25.96
2023-05-12T16:52:01.715Z,25.94
2023-05-12T16:54:03.316Z,25.97
2023-05-12T16:56:04.957Z,26.04
2023-05-12T16:58:07.294Z,26.06
2023-05-12T17:00:09.653Z,26.09
2023-05-12T17:02:11.322Z,26.13
2023-05-12T17:04:12.926Z,26.20
2023-05-12T17:06:14.463Z,26.21
2023-05-12T17:08:18.276Z,26.25
2023-05-12T17:10:20.359Z,26.27
2023-05-12T17:12:22.239Z,26.32
2023-05-12T17:14:23.657Z,26.37
2023-05-12T17:16:25.107Z,26.40
2023-05-12T17:18:26.675Z,26.42
2023-05-12T17:20:28.616Z,26.44
2023-05-12T17:22:32.047Z,26.49
2023-05-12T17:24:33.506Z,26.54
2023-05-12T17:26:35.259Z,26.54
2023-05-12T17:28:36.805Z,26.59
2023-05-12T17:30:38.347Z,26.63
2023-05-12T17:32:39.872Z,26.65
2023-05-12T17:34:41.690Z,26.69
2023-05-12T17:36:43.392Z,26.74
2023-05-12T17:38:44.934Z,26.78
2023-05-12T17:40:46.740Z,26.78
2023-05-12T17:42:49.869Z,26.81
2023-05-12T17:44:51.486Z,26.81
2023-05-12T17:46:53.101Z,26.81
2023-05-12T17:48:54.629Z,26.83
2023-05-12T17:50:56.423Z,26.84
2023-05-12T17:52:58.228Z,26.84
2023-05-12T17:54:59.747Z,26.86
2023-05-12T17:57:02.081Z,26.88
2023-05-12T17:59:04.848Z,26.91
2023-05-12T18:01:06.545Z,26.93
2023-05-12T18:03:08.446Z,26.99
2023-05-12T18:05:10.198Z,27.04
2023-05-12T18:07:11.627Z,27.08
2023-05-12T18:09:13.685Z,27.13
2023-05-12T18:11:15.139Z,27.16
2023-05-12T18:13:16.860Z,27.17
2023-05-12T18:15:19.920Z,27.21
2023-05-12T18:17:21.850Z,27.30
2023-05-12T18:19:23.905Z,27.34
2023-05-12T18:21:25.808Z,27.39
2023-05-12T18:23:27.420Z,27.33
2023-05-12T18:25:28.933Z,27.46
2023-05-12T18:27:30.469Z,27.50
2023-05-12T18:29:31.913Z,27.51
2023-05-12T18:31:34.344Z,27.52
2023-05-12T18:33:35.980Z,27.52
2023-05-12T18:35:37.585Z,27.53
2023-05-12T18:37:39.046Z,27.52
2023-05-12T18:39:40.748Z,27.54
2023-05-12T18:41:42.225Z,27.58
2023-05-12T18:43:44.757Z,27.62
2023-05-12T18:45:46.489Z,27.65
2023-05-12T18:47:48.107Z,27.69
2023-05-12T18:49:49.747Z,27.72
2023-05-12T18:51:51.352Z,27.73
2023-05-12T18:53:52.900Z,27.73
2023-05-12T18:55:54.588Z,27.74
2023-05-12T18:57:56.346Z,27.74
2023-05-12T18:59:57.790Z,27.76
2023-05-12T19:01:59.281Z,27.76
2023-05-12T19:04:00.840Z,27.78
2023-05-12T19:06:02.348Z,27.82
2023-05-12T19:08:04.136Z,27.83
2023-05-12T19:10:06.119Z,27.86
2023-05-12T19:12:10.672Z,27.89
2023-05-12T19:14:12.960Z,27.90
2023-05-12T19:16:14.414Z,27.87
2023-05-12T19:18:17.099Z,27.86
2023-05-12T19:20:18.558Z,27.85
2023-05-12T19:22:20.734Z,27.86
2023-05-12T19:24:24.395Z,27.88
2023-05-12T19:26:28.050Z,27.86
2023-05-12T19:28:29.605Z,27.86
2023-05-12T19:30:31.066Z,27.86
2023-05-12T19:32:33.087Z,27.88
2023-05-12T19:34:34.712Z,27.91
2023-05-12T19:36:36.134Z,27.92
2023-05-12T19:38:37.811Z,27.92
2023-05-12T19:40:39.478Z,27.92
2023-05-12T19:42:42.243Z,27.90
2023-05-12T19:44:43.933Z,27.87
2023-05-12T19:46:46.897Z,27.85
2023-05-12T19:48:48.467Z,27.85
2023-05-12T19:50:50.274Z,27.86
2023-05-12T19:52:51.880Z,27.86
2023-05-12T19:54:53.534Z,27.88
2023-05-12T19:56:55.145Z,27.90
2023-05-12T19:58:56.646Z,27.91
2023-05-12T20:00:58.303Z,27.91
2023-05-12T20:02:59.923Z,27.91
2023-05-12T20:05:01.661Z,27.91
2023-05-12T20:07:03.476Z,27.90
2023-05-12T20:09:04.914Z,27.90
2023-05-12T20:11:07.221Z,27.88
2023-05-12T20:13:08.894Z,27.87
2023-05-12T20:15:11.381Z,27.86
2023-05-12T20:17:12.974Z,27.87
2023-05-12T20:19:14.624Z,27.89
2023-05-12T20:21:16.550Z,27.93
2023-05-12T20:23:18.288Z,27.94
2023-05-12T20:25:20.107Z,27.96
2023-05-12T20:27:22.018Z,27.96
2023-05-12T20:29:25.431Z,27.94
2023-05-12T20:31:27.535Z,27.93
2023-05-12T20:33:29.061Z,27.92
2023-05-12T20:35:30.605Z,27.91
2023-05-12T20:37:32.157Z,27.92
2023-05-12T20:39:33.825Z,27.91
2023-05-12T20:41:35.614Z,27.91
2023-05-12T20:43:37.314Z,27.93
2023-05-12T20:45:38.813Z,27.96
2023-05-12T20:47:40.775Z,27.98
2023-05-12T20:49:42.669Z,28.00
2023-05-12T20:51:44.124Z,28.01
2023-05-12T20:53:45.698Z,28.01
2023-05-12T20:55:47.089Z,27.98
2023-05-12T20:57:48.520Z,27.97
2023-05-12T20:59:52.506Z,27.95
2023-05-12T21:01:54.012Z,27.94
2023-05-12T21:03:55.598Z,27.94
2023-05-12T21:05:57.181Z,27.96
2023-05-12T21:07:58.956Z,27.99
2023-05-12T21:10:00.792Z,28.02
2023-05-12T21:12:02.548Z,28.04
2023-05-12T21:14:04.968Z,28.06
2023-05-12T21:16:06.483Z,28.06
2023-05-12T21:18:09.015Z,28.05
2023-05-12T21:20:11.565Z,28.04
2023-05-12T21:22:13.070Z,28.02
2023-05-12T21:24:14.542Z,28.02
2023-05-12T21:26:17.763Z,27.84
2023-05-12T21:28:19.379Z,28.00
2023-05-12T21:30:21.548Z,28.02
2023-05-12T21:32:23.237Z,28.06
2023-05-12T21:34:24.828Z,28.10
2023-05-12T21:36:27.048Z,28.10
2023-05-12T21:38:30.586Z,28.12
2023-05-12T21:40:32.024Z,28.11
2023-05-12T21:42:33.692Z,28.11
2023-05-12T21:44:35.451Z,28.09
2023-05-12T21:46:37.332Z,28.08
2023-05-12T21:48:38.827Z,28.07
2023-05-12T21:50:40.900Z,28.05
2023-05-12T21:52:42.305Z,28.06
2023-05-12T21:54:43.926Z,28.07
2023-05-12T21:56:45.490Z,28.11
2023-05-12T21:58:47.281Z,28.16
2023-05-12T22:00:49.622Z,28.18
2023-05-12T22:02:51.793Z,28.18
2023-05-12T22:04:53.369Z,28.18
2023-05-12T22:06:54.826Z,28.19
2023-05-12T22:08:56.571Z,28.17
2023-05-12T22:10:58.056Z,28.15
2023-05-12T22:12:59.694Z,28.12
2023-05-12T22:15:01.668Z,28.03
2023-05-12T22:17:03.357Z,28.13
2023-05-12T22:19:05.028Z,28.16
2023-05-12T22:21:06.960Z,28.18
2023-05-12T22:23:08.422Z,28.22
2023-05-12T22:25:09.998Z,28.24
2023-05-12T22:27:11.587Z,28.16
2023-05-12T22:29:13.093Z,28.24
2023-05-12T22:31:14.986Z,28.23
2023-05-12T22:33:16.467Z,28.20
2023-05-12T22:35:17.981Z,28.19
2023-05-12T22:37:19.433Z,28.17
2023-05-12T22:39:20.942Z,28.18
2023-05-12T22:41:22.353Z,28.19
2023-05-12T22:43:24.175Z,28.21
2023-05-12T22:45:25.922Z,28.14
2023-05-12T22:47:27.461Z,28.26
2023-05-12T22:49:28.941Z,28.28
2023-05-12T22:51:31.689Z,28.29
2023-05-12T22:53:35.730Z,28.29
2023-05-12T22:55:37.273Z,28.26
2023-05-12T22:57:40.764Z,28.26
2023-05-12T22:59:42.259Z,28.22
2023-05-12T23:01:44.542Z,28.19
2023-05-12T23:03:46.278Z,28.18
2023-05-12T23:05:47.718Z,28.17
2023-05-12T23:07:49.339Z,28.16
2023-05-12T23:09:50.780Z,28.14
2023-05-12T23:11:52.176Z,28.13
2023-05-12T23:13:53.740Z,28.09
2023-05-12T23:15:55.406Z,28.07
2023-05-12T23:17:56.963Z,28.04
2023-05-12T23:19:58.489Z,28.02
2023-05-12T23:22:00.365Z,28.01
2023-05-12T23:24:01.812Z,27.96
2023-05-12T23:26:03.422Z,27.93
2023-05-12T23:28:05.996Z,27.89
2023-05-12T23:30:07.938Z,27.85
2023-05-12T23:32:09.704Z,27.82
2023-05-12T23:34:11.299Z,27.80
2023-05-12T23:36:13.664Z,27.75
2023-05-12T23:38:15.243Z,27.73
2023-05-12T23:40:16.683Z,27.69
2023-05-12T23:42:18.124Z,27.67
2023-05-12T23:44:19.647Z,27.64
2023-05-12T23:46:21.298Z,27.59
2023-05-12T23:48:22.972Z,27.57
2023-05-12T23:50:27.503Z,27.53
2023-05-12T23:52:28.931Z,27.49
2023-05-12T23:54:30.381Z,27.47
2023-05-12T23:56:31.916Z,27.41
2023-05-12T23:58:34.071Z,27.38
